createdAt,value
2019-05-20T00:00:08.679Z,19.27
2019-05-20T00:02:37.631Z,20.37
2019-05-20T00:05:06.913Z,19.87
2019-05-20T00:07:36.201Z,19.93
2019-05-20T00:10:05.715Z,18.77
2019-05-20T00:12:34.946Z,20.83
2019-05-20T00:15:03.933Z,19.37
2019-05-20T00:17:32.956Z,22.37
2019-05-20T00:20:02.014Z,20.00
2019-05-20T00:22:31.058Z,20.30
2019-05-20T00:25:00.127Z,20.67
2019-05-20T00:27:29.146Z,20.40
2019-05-20T00:29:58.210Z,18.83
2019-05-20T00:32:40.322Z,17.77
2019-05-20T00:34:58.161Z,19.10
2019-05-20T00:37:27.192Z,19.90
2019-05-20T00:39:57.044Z,19.20
2019-05-20T00:42:26.397Z,22.47
2019-05-20T00:44:55.604Z,21.17
2019-05-20T00:47:24.588Z,19.77
2019-05-20T00:49:53.562Z,21.87
2019-05-20T00:52:22.616Z,22.77
2019-05-20T00:54:51.652Z,19.53
2019-05-20T00:57:20.752Z,19.87
2019-05-20T00:59:49.755Z,25.83
2019-05-20T01:02:18.705Z,23.13
2019-05-20T01:04:47.702Z,22.60
2019-05-20T01:07:16.777Z,21.03
2019-05-20T01:09:45.877Z,21.83
2019-05-20T01:12:15.011Z,24.60
2019-05-20T01:14:44.022Z,26.17
2019-05-20T01:17:13.468Z,23.13
2019-05-20T01:19:42.513Z,22.33
2019-05-20T01:22:11.525Z,23.53
2019-05-20T01:24:40.504Z,24.07
2019-05-20T01:27:10.172Z,22.17
2019-05-20T01:29:39.051Z,23.23
2019-05-20T01:32:07.938Z,26.10
2019-05-20T01:34:37.477Z,21.07
2019-05-20T01:37:06.689Z,21.77
2019-05-20T01:39:35.702Z,24.87
2019-05-20T01:42:04.784Z,22.00
2019-05-20T01:44:33.835Z,22.20
2019-05-20T01:47:02.793Z,23.57
2019-05-20T01:49:31.682Z,23.67
2019-05-20T01:52:00.791Z,27.43
2019-05-20T01:54:29.840Z,26.23
2019-05-20T01:56:58.862Z,27.67
2019-05-20T01:59:27.811Z,27.80
2019-05-20T02:01:56.647Z,26.90
2019-05-20T02:04:25.607Z,27.37
2019-05-20T02:06:55.386Z,26.63
2019-05-20T02:09:24.223Z,26.10
2019-05-20T02:11:53.167Z,36.80
2019-05-20T02:14:24.139Z,37.97
2019-05-20T02:16:53.048Z,48.87
2019-05-20T02:19:21.846Z,56.40
2019-05-20T02:21:50.798Z,64.97
2019-05-20T02:24:19.711Z,65.50
2019-05-20T02:26:48.602Z,66.50
2019-05-20T02:29:17.630Z,70.10
2019-05-20T02:31:46.571Z,70.10
2019-05-20T02:34:15.860Z,73.07
2019-05-20T02:36:44.710Z,79.43
2019-05-20T02:39:13.672Z,82.27
2019-05-20T02:41:42.648Z,82.80
2019-05-20T02:44:11.515Z,78.27
2019-05-20T02:46:40.409Z,77.43
2019-05-20T02:49:09.423Z,72.20
2019-05-20T02:51:38.556Z,74.53
2019-05-20T02:54:07.498Z,70.70
2019-05-20T02:56:36.445Z,77.83
2019-05-20T02:59:05.583Z,86.07
2019-05-20T03:01:34.568Z,82.73
2019-05-20T03:04:11.547Z,86.07
2019-05-20T03:06:34.025Z,91.83
2019-05-20T03:09:03.882Z,91.57
2019-05-20T03:11:32.911Z,88.27
2019-05-20T03:14:01.857Z,85.50
2019-05-20T03:16:30.781Z,89.63
2019-05-20T03:18:59.702Z,90.03
2019-05-20T03:21:28.733Z,90.97
2019-05-20T03:23:57.686Z,94.40
2019-05-20T03:26:26.614Z,102.77
2019-05-20T03:28:55.506Z,99.13
2019-05-20T03:31:24.544Z,103.17
2019-05-20T03:33:53.645Z,101.83
2019-05-20T03:36:22.648Z,110.10
2019-05-20T03:38:51.581Z,107.13
2019-05-20T03:41:20.621Z,101.20
2019-05-20T03:43:49.478Z,95.07
2019-05-20T03:46:18.507Z,96.57
2019-05-20T03:48:47.351Z,101.67
2019-05-20T03:51:16.211Z,97.57
2019-05-20T03:53:45.232Z,102.23
2019-05-20T03:56:14.194Z,98.93
2019-05-20T03:58:43.255Z,96.47
2019-05-20T04:01:12.506Z,103.23
2019-05-20T04:03:41.449Z,99.40
2019-05-20T04:06:10.656Z,99.10
2019-05-20T04:08:39.711Z,97.17
2019-05-20T04:11:08.745Z,97.57
2019-05-20T04:13:37.833Z,94.53
2019-05-20T04:16:06.680Z,101.90
2019-05-20T04:18:35.758Z,95.03
2019-05-20T04:21:04.761Z,83.97
2019-05-20T04:23:33.793Z,93.77
2019-05-20T04:26:02.776Z,85.37
2019-05-20T04:28:32.033Z,86.90
2019-05-20T04:31:00.925Z,86.07
2019-05-20T04:33:30.028Z,84.57
2019-05-20T04:35:59.072Z,88.17
2019-05-20T04:38:27.951Z,77.77
2019-05-20T04:40:57.010Z,76.90
2019-05-20T04:43:25.929Z,83.60
2019-05-20T04:45:55.032Z,71.97
2019-05-20T04:48:24.104Z,73.13
2019-05-20T04:50:53.142Z,74.83
2019-05-20T04:53:22.087Z,68.33
2019-05-20T04:55:51.095Z,67.80
2019-05-20T04:58:19.917Z,70.87
2019-05-20T05:00:59.040Z,72.00
2019-05-20T05:03:28.056Z,72.00
2019-05-20T05:05:57.370Z,64.80
2019-05-20T05:08:26.291Z,65.70
2019-05-20T05:10:55.812Z,65.47
2019-05-20T05:13:24.824Z,73.17
2019-05-20T05:15:53.920Z,70.63
2019-05-20T05:18:22.910Z,70.60
2019-05-20T05:20:52.119Z,67.20
2019-05-20T05:23:22.165Z,66.50
2019-05-20T05:25:51.266Z,67.77
2019-05-20T05:28:20.318Z,65.70
2019-05-20T05:30:49.359Z,76.33
2019-05-20T05:33:18.396Z,67.87
2019-05-20T05:35:53.182Z,65.97
2019-05-20T05:38:18.035Z,69.00
2019-05-20T05:40:46.909Z,62.47
2019-05-20T05:43:15.872Z,65.77
2019-05-20T05:45:44.832Z,65.33
2019-05-20T05:48:13.808Z,62.67
2019-05-20T05:50:42.790Z,64.90
2019-05-20T05:53:11.629Z,60.23
2019-05-20T05:55:40.999Z,60.43
2019-05-20T05:58:09.965Z,63.47
2019-05-20T06:00:39.210Z,56.90
2019-05-20T06:03:09.711Z,55.40
2019-05-20T06:05:38.721Z,57.93
2019-05-20T06:08:07.719Z,55.13
2019-05-20T06:10:36.683Z,54.33
2019-05-20T06:13:05.852Z,56.87
2019-05-20T06:15:34.938Z,60.13
2019-05-20T06:18:03.853Z,56.67
2019-05-20T06:20:32.819Z,61.90
2019-05-20T06:23:01.810Z,56.50
2019-05-20T06:25:30.927Z,57.87
2019-05-20T06:27:59.923Z,55.53
2019-05-20T06:30:38.241Z,48.17
2019-05-20T06:33:07.107Z,46.27
2019-05-20T06:35:36.298Z,47.90
2019-05-20T06:38:07.784Z,47.17
2019-05-20T06:40:37.002Z,47.03
2019-05-20T06:43:05.934Z,49.10
2019-05-20T06:45:34.945Z,47.83
2019-05-20T06:48:03.930Z,51.47
2019-05-20T06:50:32.964Z,52.60
2019-05-20T06:53:02.152Z,49.53
2019-05-20T06:55:31.086Z,48.23
2019-05-20T06:58:00.083Z,46.37
2019-05-20T07:00:34.638Z,50.00
2019-05-20T07:03:04.195Z,52.33
2019-05-20T07:05:33.463Z,54.30
2019-05-20T07:08:02.495Z,55.33
2019-05-20T07:10:31.470Z,51.70
2019-05-20T07:13:00.728Z,52.53
2019-05-20T07:15:29.754Z,51.60
2019-05-20T07:17:58.638Z,49.93
2019-05-20T07:20:27.882Z,52.23
2019-05-20T07:22:57.258Z,47.97
2019-05-20T07:25:26.490Z,53.30
2019-05-20T07:27:55.326Z,50.93
2019-05-20T07:30:24.335Z,51.20
2019-05-20T07:32:53.582Z,52.63
2019-05-20T07:35:30.371Z,47.97
2019-05-20T07:37:53.325Z,47.67
2019-05-20T07:40:33.180Z,47.73
2019-05-20T07:43:03.716Z,48.83
2019-05-20T07:45:35.267Z,50.93
2019-05-20T07:48:05.665Z,48.70
2019-05-20T07:50:38.266Z,49.57
2019-05-20T07:53:08.396Z,51.80
2019-05-20T07:55:42.117Z,49.47
2019-05-20T07:58:12.865Z,50.80
2019-05-20T08:00:41.927Z,49.90
2019-05-20T08:03:10.901Z,46.80
2019-05-20T08:05:39.909Z,48.77
2019-05-20T08:08:08.799Z,49.70
2019-05-20T08:10:37.712Z,52.30
2019-05-20T08:13:06.829Z,53.57
2019-05-20T08:15:36.045Z,47.97
2019-05-20T08:18:05.150Z,54.30
2019-05-20T08:20:34.189Z,52.63
2019-05-20T08:23:03.106Z,43.93
2019-05-20T08:25:32.011Z,52.10
2019-05-20T08:28:01.022Z,45.93
2019-05-20T08:30:33.405Z,46.77
2019-05-20T08:33:02.542Z,48.17
2019-05-20T08:35:31.614Z,48.30
2019-05-20T08:38:00.545Z,47.13
2019-05-20T08:40:29.536Z,49.77
2019-05-20T08:42:58.837Z,49.07
2019-05-20T08:45:28.110Z,48.93
2019-05-20T08:47:57.174Z,47.30
2019-05-20T08:50:26.157Z,50.57
2019-05-20T08:52:55.164Z,49.13
2019-05-20T08:55:24.072Z,49.40
2019-05-20T08:57:52.924Z,45.90
2019-05-20T09:00:24.237Z,48.47
2019-05-20T09:02:53.726Z,47.03
2019-05-20T09:05:22.624Z,43.37
2019-05-20T09:08:02.136Z,46.30
2019-05-20T09:10:22.573Z,48.10
2019-05-20T09:12:51.556Z,46.97
2019-05-20T09:15:20.723Z,43.60
2019-05-20T09:17:49.641Z,47.50
2019-05-20T09:20:18.907Z,47.97
2019-05-20T09:22:47.954Z,50.70
2019-05-20T09:25:18.644Z,48.43
2019-05-20T09:27:47.676Z,55.03
2019-05-20T09:30:17.186Z,53.30
2019-05-20T09:32:46.662Z,54.37
2019-05-20T09:35:15.729Z,56.47
2019-05-20T09:37:44.682Z,60.33
2019-05-20T09:40:18.535Z,54.80
2019-05-20T09:42:47.475Z,52.07
2019-05-20T09:45:16.433Z,49.13
2019-05-20T09:47:45.339Z,48.80
2019-05-20T09:50:14.365Z,45.67
2019-05-20T09:52:43.578Z,48.37
2019-05-20T09:55:12.550Z,47.23
2019-05-20T09:57:41.465Z,45.63
2019-05-20T10:00:10.790Z,44.23
2019-05-20T10:02:39.822Z,42.93
2019-05-20T10:05:08.851Z,45.77
2019-05-20T10:07:37.880Z,44.83
2019-05-20T10:10:07.059Z,48.37
2019-05-20T10:12:45.954Z,48.83
2019-05-20T10:15:07.068Z,48.30
2019-05-20T10:17:36.156Z,51.63
2019-05-20T10:20:05.531Z,52.00
2019-05-20T10:22:34.843Z,51.50
2019-05-20T10:25:04.156Z,53.60
2019-05-20T10:27:33.187Z,56.33
2019-05-20T10:30:02.187Z,64.17
2019-05-20T10:32:31.107Z,63.87
2019-05-20T10:35:00.063Z,63.83
2019-05-20T10:37:29.076Z,61.23
2019-05-20T10:39:57.964Z,70.07
2019-05-20T10:42:27.029Z,61.60
2019-05-20T10:44:56.038Z,60.40
2019-05-20T10:47:24.886Z,62.90
2019-05-20T10:49:54.082Z,63.10
2019-05-20T10:52:23.105Z,62.40
2019-05-20T10:54:52.106Z,60.87
2019-05-20T10:57:21.031Z,60.93
2019-05-20T10:59:49.958Z,61.07
2019-05-20T11:02:18.822Z,61.50
2019-05-20T11:04:47.998Z,70.20
2019-05-20T11:07:16.998Z,66.07
2019-05-20T11:09:46.570Z,66.93
2019-05-20T11:12:15.531Z,62.70
2019-05-20T11:14:44.514Z,68.93
2019-05-20T11:17:15.182Z,75.37
2019-05-20T11:19:43.930Z,78.57
2019-05-20T11:22:12.950Z,79.33
2019-05-20T11:24:41.930Z,84.90
2019-05-20T11:27:10.746Z,85.20
2019-05-20T11:29:39.754Z,84.00
2019-05-20T11:32:08.773Z,83.97
2019-05-20T11:34:37.738Z,84.53
2019-05-20T11:37:06.899Z,79.47
2019-05-20T11:39:35.786Z,81.23
2019-05-20T11:42:04.804Z,73.17
2019-05-20T11:44:34.350Z,73.83
2019-05-20T11:47:03.352Z,79.87
2019-05-20T11:49:32.328Z,78.17
2019-05-20T11:52:01.313Z,88.27
2019-05-20T11:54:30.413Z,89.33
2019-05-20T11:56:59.742Z,80.33
2019-05-20T11:59:28.761Z,75.50
2019-05-20T12:01:57.592Z,70.03
2019-05-20T12:04:26.598Z,79.83
2019-05-20T12:06:55.707Z,69.70
2019-05-20T12:09:24.613Z,74.87
2019-05-20T12:11:53.422Z,72.80
2019-05-20T12:14:22.365Z,70.73
2019-05-20T12:16:51.269Z,80.53
2019-05-20T12:19:20.161Z,69.33
2019-05-20T12:21:49.041Z,72.70
2019-05-20T12:24:17.850Z,67.03
2019-05-20T12:26:46.841Z,73.00
2019-05-20T12:29:15.758Z,71.53
2019-05-20T12:31:44.771Z,68.20
2019-05-20T12:34:13.627Z,68.47
2019-05-20T12:36:42.605Z,67.53
2019-05-20T12:39:11.525Z,64.87
2019-05-20T12:41:40.932Z,65.33
2019-05-20T12:44:12.871Z,63.47
2019-05-20T12:46:40.475Z,63.40
2019-05-20T12:49:09.606Z,60.53
2019-05-20T12:51:38.486Z,60.17
2019-05-20T12:54:07.449Z,57.73
2019-05-20T12:56:36.382Z,61.23
2019-05-20T12:59:05.547Z,61.73
2019-05-20T13:01:34.581Z,63.37
2019-05-20T13:04:03.686Z,58.90
2019-05-20T13:06:32.798Z,63.17
2019-05-20T13:09:01.840Z,59.63
2019-05-20T13:11:31.188Z,64.13
2019-05-20T13:14:00.094Z,66.43
2019-05-20T13:16:29.040Z,59.50
2019-05-20T13:18:58.090Z,56.40
2019-05-20T13:21:27.011Z,58.23
2019-05-20T13:23:57.629Z,57.67
2019-05-20T13:26:27.003Z,57.93
2019-05-20T13:28:59.295Z,56.43
2019-05-20T13:31:26.813Z,51.77
2019-05-20T13:33:55.782Z,51.27
2019-05-20T13:36:24.770Z,51.47
2019-05-20T13:38:53.986Z,50.67
2019-05-20T13:41:22.894Z,55.70
2019-05-20T13:43:51.768Z,52.57
2019-05-20T13:46:20.757Z,51.03
2019-05-20T13:48:49.710Z,52.13
2019-05-20T13:51:18.682Z,62.23
2019-05-20T13:53:47.617Z,56.73
2019-05-20T13:56:16.570Z,62.47
2019-05-20T13:58:45.563Z,62.13
2019-05-20T14:01:14.431Z,62.53
2019-05-20T14:03:43.365Z,61.17
2019-05-20T14:06:12.443Z,62.03
2019-05-20T14:08:41.406Z,58.57
2019-05-20T14:11:10.236Z,54.40
2019-05-20T14:13:39.090Z,58.80
2019-05-20T14:16:08.026Z,60.57
2019-05-20T14:18:36.966Z,61.97
2019-05-20T14:21:05.943Z,60.27
2019-05-20T14:23:34.846Z,71.20
2019-05-20T14:26:04.086Z,67.27
2019-05-20T14:28:33.712Z,61.63
2019-05-20T14:31:05.918Z,65.67
2019-05-20T14:33:33.559Z,67.77
2019-05-20T14:36:02.409Z,67.20
2019-05-20T14:38:31.453Z,62.53
2019-05-20T14:41:00.377Z,63.40
2019-05-20T14:43:29.401Z,70.40
2019-05-20T14:45:58.394Z,67.80
2019-05-20T14:48:27.382Z,61.00
2019-05-20T14:50:56.268Z,59.13
2019-05-20T14:53:25.151Z,57.80
2019-05-20T14:55:54.117Z,60.83
2019-05-20T14:58:23.030Z,63.97
2019-05-20T15:00:52.059Z,61.47
2019-05-20T15:03:20.900Z,61.50
2019-05-20T15:05:50.106Z,58.97
2019-05-20T15:08:19.381Z,62.03
2019-05-20T15:10:48.408Z,60.40
2019-05-20T15:13:17.426Z,59.23
2019-05-20T15:15:48.579Z,54.50
2019-05-20T15:18:17.127Z,63.47
2019-05-20T15:20:46.093Z,66.70
2019-05-20T15:23:15.428Z,67.63
2019-05-20T15:25:44.651Z,66.50
2019-05-20T15:28:13.679Z,64.00
2019-05-20T15:30:42.595Z,64.87
2019-05-20T15:33:11.679Z,66.60
2019-05-20T15:35:40.607Z,63.67
2019-05-20T15:38:09.961Z,63.83
2019-05-20T15:40:38.864Z,63.70
2019-05-20T15:43:07.734Z,65.33
2019-05-20T15:45:36.717Z,62.90
2019-05-20T15:48:05.614Z,61.37
2019-05-20T15:50:34.703Z,60.70
2019-05-20T15:53:03.931Z,63.33
2019-05-20T15:55:33.038Z,64.43
2019-05-20T15:58:02.009Z,57.47
2019-05-20T16:00:31.165Z,63.40
2019-05-20T16:03:00.278Z,62.57
2019-05-20T16:05:29.236Z,57.27
2019-05-20T16:07:58.172Z,56.97
2019-05-20T16:10:27.140Z,59.93
2019-05-20T16:12:56.075Z,58.53
2019-05-20T16:15:25.022Z,54.97
2019-05-20T16:17:53.920Z,55.13
2019-05-20T16:20:22.991Z,54.30
2019-05-20T16:22:51.898Z,63.03
2019-05-20T16:25:20.923Z,55.70
2019-05-20T16:27:49.873Z,59.07
2019-05-20T16:30:19.055Z,61.47
2019-05-20T16:32:48.382Z,104.00
2019-05-20T16:35:17.468Z,160.03
2019-05-20T16:37:46.299Z,85.77
2019-05-20T16:40:15.814Z,59.40
2019-05-20T16:42:44.901Z,74.83
2019-05-20T16:45:14.550Z,60.20
2019-05-20T16:47:43.426Z,59.70
2019-05-20T16:50:14.233Z,56.40
2019-05-20T16:52:43.365Z,59.87
2019-05-20T16:55:12.447Z,55.13
2019-05-20T16:57:41.327Z,56.70
2019-05-20T17:00:29.871Z,55.30
2019-05-20T17:02:42.314Z,54.93
2019-05-20T17:05:11.370Z,56.40
2019-05-20T17:07:40.301Z,46.93
2019-05-20T17:10:09.828Z,51.17
2019-05-20T17:12:38.934Z,49.13
2019-05-20T17:15:08.540Z,46.53
2019-05-20T17:17:37.693Z,45.67
2019-05-20T17:20:07.045Z,47.00
2019-05-20T17:22:36.131Z,45.93
2019-05-20T17:25:05.386Z,42.87
2019-05-20T17:27:34.353Z,41.57
2019-05-20T17:30:04.487Z,41.17
2019-05-20T17:32:33.985Z,44.47
2019-05-20T17:35:02.896Z,43.87
2019-05-20T17:37:31.951Z,41.67
2019-05-20T17:40:01.021Z,40.90
2019-05-20T17:42:30.076Z,37.20
2019-05-20T17:44:59.083Z,38.60
2019-05-20T17:47:28.038Z,34.93
2019-05-20T17:49:57.006Z,34.93
2019-05-20T17:52:26.157Z,38.10
2019-05-20T17:54:55.258Z,36.43
2019-05-20T17:57:24.277Z,34.17
2019-05-20T17:59:53.418Z,33.63
2019-05-20T18:02:22.238Z,34.93
2019-05-20T18:04:51.242Z,34.33
2019-05-20T18:07:20.163Z,34.03
2019-05-20T18:09:50.819Z,35.53
2019-05-20T18:12:19.980Z,41.43
2019-05-20T18:14:52.478Z,37.87
2019-05-20T18:17:21.459Z,34.73
2019-05-20T18:19:50.411Z,36.90
2019-05-20T18:22:19.500Z,35.80
2019-05-20T18:24:48.715Z,34.53
2019-05-20T18:27:17.724Z,32.80
2019-05-20T18:29:46.750Z,32.93
2019-05-20T18:32:15.679Z,35.10
2019-05-20T18:34:44.722Z,33.70
2019-05-20T18:37:13.645Z,37.17
2019-05-20T18:39:42.539Z,37.50
2019-05-20T18:42:11.494Z,37.43
2019-05-20T18:44:40.458Z,39.93
2019-05-20T18:47:09.482Z,39.53
2019-05-20T18:49:41.249Z,36.57
2019-05-20T18:52:09.230Z,35.47
2019-05-20T18:54:38.111Z,38.03
2019-05-20T18:57:06.989Z,34.33
2019-05-20T18:59:37.178Z,33.47
2019-05-20T19:02:06.685Z,34.30
2019-05-20T19:04:35.677Z,36.57
2019-05-20T19:07:04.633Z,36.67
2019-05-20T19:09:33.466Z,40.33
2019-05-20T19:12:02.430Z,41.50
2019-05-20T19:14:31.646Z,37.47
2019-05-20T19:17:00.683Z,35.03
2019-05-20T19:19:29.771Z,40.10
2019-05-20T19:21:58.806Z,37.70
2019-05-20T19:24:27.842Z,40.23
2019-05-20T19:26:56.891Z,41.47
2019-05-20T19:29:25.822Z,39.50
2019-05-20T19:32:02.023Z,42.80
2019-05-20T19:34:25.652Z,43.33
2019-05-20T19:36:54.603Z,43.23
2019-05-20T19:39:23.701Z,37.00
2019-05-20T19:41:52.752Z,41.00
2019-05-20T19:44:21.859Z,42.10
2019-05-20T19:46:50.770Z,49.40
2019-05-20T19:49:19.862Z,43.03
2019-05-20T19:51:48.807Z,46.53
2019-05-20T19:54:17.986Z,44.87
2019-05-20T19:56:47.254Z,44.13
2019-05-20T19:59:16.319Z,41.90
2019-05-20T20:01:45.328Z,41.20
2019-05-20T20:04:14.712Z,42.37
2019-05-20T20:06:43.747Z,40.97
2019-05-20T20:09:12.777Z,44.23
2019-05-20T20:11:41.886Z,43.87
2019-05-20T20:14:10.847Z,45.87
2019-05-20T20:16:39.717Z,46.07
2019-05-20T20:19:08.668Z,49.50
2019-05-20T20:21:37.632Z,44.50
2019-05-20T20:24:09.357Z,49.83
2019-05-20T20:26:37.537Z,51.93
2019-05-20T20:29:06.575Z,50.20
2019-05-20T20:31:35.719Z,47.87
2019-05-20T20:34:04.874Z,48.27
2019-05-20T20:36:34.140Z,53.67
2019-05-20T20:39:03.581Z,54.77
2019-05-20T20:41:32.647Z,55.33
2019-05-20T20:44:01.732Z,58.30
2019-05-20T20:46:31.143Z,59.00
2019-05-20T20:49:00.426Z,59.10
2019-05-20T20:51:29.534Z,61.20
2019-05-20T20:53:58.417Z,66.03
2019-05-20T20:56:27.338Z,64.00
2019-05-20T20:58:56.351Z,63.17
2019-05-20T21:01:25.504Z,66.10
2019-05-20T21:03:54.502Z,71.37
2019-05-20T21:06:23.554Z,70.83
2019-05-20T21:08:52.462Z,67.23
2019-05-20T21:11:21.788Z,73.30
2019-05-20T21:13:50.800Z,68.00
2019-05-20T21:16:19.707Z,66.87
2019-05-20T21:18:48.575Z,68.10
2019-05-20T21:21:17.519Z,67.13
2019-05-20T21:23:46.350Z,68.70
2019-05-20T21:26:15.426Z,76.67
2019-05-20T21:28:44.467Z,68.37
2019-05-20T21:31:13.947Z,67.60
2019-05-20T21:33:42.953Z,70.97
2019-05-20T21:36:12.335Z,67.97
2019-05-20T21:38:41.265Z,65.30
2019-05-20T21:41:10.274Z,64.57
2019-05-20T21:43:39.372Z,65.17
2019-05-20T21:46:08.367Z,66.27
2019-05-20T21:48:37.295Z,63.70
2019-05-20T21:51:06.259Z,63.43
2019-05-20T21:53:35.245Z,66.30
2019-05-20T21:56:04.256Z,69.57
2019-05-20T21:58:33.243Z,65.03
2019-05-20T22:01:02.454Z,70.87
2019-05-20T22:03:50.591Z,65.80
2019-05-20T22:06:19.882Z,63.03
2019-05-20T22:08:48.967Z,61.27
2019-05-20T22:11:18.149Z,65.03
2019-05-20T22:13:47.115Z,67.33
2019-05-20T22:16:16.226Z,62.47
2019-05-20T22:18:45.347Z,62.57
2019-05-20T22:21:16.073Z,67.03
2019-05-20T22:23:50.194Z,68.23
2019-05-20T22:26:19.336Z,65.20
2019-05-20T22:28:48.377Z,70.87
2019-05-20T22:31:17.553Z,59.50
2019-05-20T22:33:46.583Z,68.63
2019-05-20T22:36:15.662Z,68.77
2019-05-20T22:38:44.743Z,77.33
2019-05-20T22:41:13.883Z,77.97
2019-05-20T22:43:42.899Z,79.13
2019-05-20T22:46:12.333Z,77.43
2019-05-20T22:48:41.414Z,74.70
2019-05-20T22:51:10.517Z,75.37
2019-05-20T22:53:39.595Z,73.63
2019-05-20T22:56:08.615Z,79.27
2019-05-20T22:58:38.700Z,77.33
2019-05-20T23:01:07.900Z,77.53
2019-05-20T23:03:36.973Z,69.77
2019-05-20T23:06:06.102Z,70.97
2019-05-20T23:08:35.048Z,70.53
2019-05-20T23:11:04.054Z,67.50
2019-05-20T23:13:33.028Z,70.77
2019-05-20T23:16:02.114Z,68.80
2019-05-20T23:18:31.123Z,65.33
2019-05-20T23:21:00.039Z,76.57
2019-05-20T23:23:28.896Z,63.57
2019-05-20T23:25:57.878Z,74.47
2019-05-20T23:28:27.568Z,70.97
2019-05-20T23:30:56.540Z,77.20
2019-05-20T23:33:25.640Z,76.23
2019-05-20T23:35:55.060Z,84.03
2019-05-20T23:38:24.116Z,85.70
2019-05-20T23:40:53.083Z,84.17
2019-05-20T23:43:22.212Z,92.40
2019-05-20T23:45:51.229Z,86.03
2019-05-20T23:48:20.334Z,86.10
2019-05-20T23:50:49.563Z,85.57
2019-05-20T23:53:18.530Z,92.27
2019-05-20T23:55:47.544Z,88.03
2019-05-20T23:58:16.537Z,79.00
